sensor_id;sensor_type;location;lat;lon;timestamp;P1;durP1;ratioP1;P2;durP2;ratioP2
6495;SDS011;3281;47.658;9.166;2024-03-23T00:55:18;1.27;;;1.17;;
6495;SDS011;3281;47.658;9.166;2024-03-23T00:57:45;2.30;;;1.47;;
6495;SDS011;3281;47.658;9.166;2024-03-23T01:00:11;1.63;;;1.20;;
6495;SDS011;3281;47.658;9.166;2024-03-23T01:02:38;1.30;;;1.07;;
6495;SDS011;3281;47.658;9.166;2024-03-23T01:05:04;1.20;;;1.10;;
6495;SDS011;3281;47.658;9.166;2024-03-23T01:07:31;1.50;;;1.27;;
6495;SDS011;3281;47.658;9.166;2024-03-23T01:09:57;1.77;;;1.50;;
6495;SDS011;3281;47.658;9.166;2024-03-23T01:12:25;2.17;;;1.70;;
6495;SDS011;3281;47.658;9.166;2024-03-23T01:14:51;1.87;;;1.37;;
6495;SDS011;3281;47.658;9.166;2024-03-23T01:17:17;1.33;;;1.07;;
6495;SDS011;3281;47.658;9.166;2024-03-23T01:19:43;0.90;;;0.90;;
6495;SDS011;3281;47.658;9.166;2024-03-23T01:22:10;1.40;;;1.30;;
6495;SDS011;3281;47.658;9.166;2024-03-23T01:24:36;1.10;;;1.10;;
6495;SDS011;3281;47.658;9.166;2024-03-23T01:27:02;1.20;;;1.00;;
6495;SDS011;3281;47.658;9.166;2024-03-23T01:29:30;1.07;;;1.03;;
6495;SDS011;3281;47.658;9.166;2024-03-23T01:31:56;1.00;;;0.90;;
6495;SDS011;3281;47.658;9.166;2024-03-23T01:34:22;4.10;;;2.73;;
6495;SDS011;3281;47.658;9.166;2024-03-23T01:36:50;4.33;;;2.50;;
6495;SDS011;3281;47.658;9.166;2024-03-23T01:39:15;6.50;;;1.93;;
6495;SDS011;3281;47.658;9.166;2024-03-23T01:41:42;2.20;;;2.00;;
6495;SDS011;3281;47.658;9.166;2024-03-23T01:44:08;3.53;;;1.83;;
6495;SDS011;3281;47.658;9.166;2024-03-23T01:46:37;3.70;;;1.60;;
6495;SDS011;3281;47.658;9.166;2024-03-23T01:49:03;1.80;;;1.47;;
6495;SDS011;3281;47.658;9.166;2024-03-23T01:51:31;2.00;;;1.43;;
6495;SDS011;3281;47.658;9.166;2024-03-23T01:53:58;1.47;;;1.27;;
6495;SDS011;3281;47.658;9.166;2024-03-23T01:56:27;3.77;;;1.60;;
6495;SDS011;3281;47.658;9.166;2024-03-23T01:58:53;1.57;;;1.43;;
6495;SDS011;3281;47.658;9.166;2024-03-23T02:01:20;2.33;;;1.93;;
6495;SDS011;3281;47.658;9.166;2024-03-23T02:03:47;1.73;;;1.60;;
6495;SDS011;3281;47.658;9.166;2024-03-23T02:06:14;3.50;;;1.67;;
6495;SDS011;3281;47.658;9.166;2024-03-23T02:08:40;1.17;;;1.07;;
6495;SDS011;3281;47.658;9.166;2024-03-23T02:11:07;3.70;;;1.43;;
6495;SDS011;3281;47.658;9.166;2024-03-23T02:13:33;2.20;;;1.00;;
6495;SDS011;3281;47.658;9.166;2024-03-23T02:15:59;1.43;;;1.33;;
6495;SDS011;3281;47.658;9.166;2024-03-23T02:18:25;1.40;;;1.20;;
6495;SDS011;3281;47.658;9.166;2024-03-23T02:20:53;1.00;;;0.93;;
6495;SDS011;3281;47.658;9.166;2024-03-23T02:23:20;2.10;;;1.33;;
6495;SDS011;3281;47.658;9.166;2024-03-23T02:25:47;2.23;;;1.47;;
6495;SDS011;3281;47.658;9.166;2024-03-23T02:28:12;1.50;;;1.40;;
6495;SDS011;3281;47.658;9.166;2024-03-23T02:30:39;2.13;;;1.53;;
6495;SDS011;3281;47.658;9.166;2024-03-23T02:33:05;1.87;;;1.50;;
6495;SDS011;3281;47.658;9.166;2024-03-23T02:35:32;1.50;;;1.10;;
6495;SDS011;3281;47.658;9.166;2024-03-23T02:37:58;0.80;;;0.80;;
6495;SDS011;3281;47.658;9.166;2024-03-23T02:40:26;1.17;;;1.00;;
6495;SDS011;3281;47.658;9.166;2024-03-23T02:42:52;1.87;;;1.43;;
6495;SDS011;3281;47.658;9.166;2024-03-23T02:45:19;1.70;;;1.27;;
6495;SDS011;3281;47.658;9.166;2024-03-23T02:47:45;1.43;;;1.33;;
6495;SDS011;3281;47.658;9.166;2024-03-23T02:50:12;1.87;;;1.57;;
6495;SDS011;3281;47.658;9.166;2024-03-23T02:52:39;1.30;;;1.20;;
6495;SDS011;3281;47.658;9.166;2024-03-23T02:55:06;1.00;;;1.00;;
6495;SDS011;3281;47.658;9.166;2024-03-23T02:57:34;1.93;;;1.23;;
6495;SDS011;3281;47.658;9.166;2024-03-23T03:00:00;3.00;;;1.13;;
6495;SDS011;3281;47.658;9.166;2024-03-23T03:02:27;2.50;;;1.13;;
6495;SDS011;3281;47.658;9.166;2024-03-23T03:04:53;1.47;;;1.13;;
6495;SDS011;3281;47.658;9.166;2024-03-23T03:07:19;2.43;;;1.33;;
6495;SDS011;3281;47.658;9.166;2024-03-23T03:09:46;1.73;;;1.63;;
6495;SDS011;3281;47.658;9.166;2024-03-23T03:12:11;1.00;;;1.00;;
6495;SDS011;3281;47.658;9.166;2024-03-23T03:14:39;1.00;;;1.00;;
6495;SDS011;3281;47.658;9.166;2024-03-23T03:17:05;1.13;;;0.93;;
6495;SDS011;3281;47.658;9.166;2024-03-23T03:19:32;2.57;;;1.10;;
6495;SDS011;3281;47.658;9.166;2024-03-23T03:21:57;1.57;;;1.47;;
6495;SDS011;3281;47.658;9.166;2024-03-23T03:24:24;1.67;;;1.30;;
6495;SDS011;3281;47.658;9.166;2024-03-23T03:26:50;1.00;;;1.00;;
6495;SDS011;3281;47.658;9.166;2024-03-23T03:29:17;1.57;;;1.13;;
6495;SDS011;3281;47.658;9.166;2024-03-23T03:31:44;2.23;;;1.37;;
6495;SDS011;3281;47.658;9.166;2024-03-23T03:34:11;4.37;;;1.87;;
6495;SDS011;3281;47.658;9.166;2024-03-23T03:36:36;1.27;;;1.17;;
6495;SDS011;3281;47.658;9.166;2024-03-23T03:39:04;1.00;;;0.90;;
6495;SDS011;3281;47.658;9.166;2024-03-23T03:41:30;2.50;;;1.67;;
6495;SDS011;3281;47.658;9.166;2024-03-23T03:43:57;1.17;;;1.07;;
6495;SDS011;3281;47.658;9.166;2024-03-23T03:46:26;1.07;;;1.07;;
6495;SDS011;3281;47.658;9.166;2024-03-23T03:48:55;1.73;;;1.50;;
6495;SDS011;3281;47.658;9.166;2024-03-23T03:51:20;1.37;;;1.03;;
6495;SDS011;3281;47.658;9.166;2024-03-23T03:53:47;1.40;;;1.20;;
6495;SDS011;3281;47.658;9.166;2024-03-23T03:56:13;1.37;;;1.27;;
6495;SDS011;3281;47.658;9.166;2024-03-23T03:58:40;1.23;;;0.93;;
6495;SDS011;3281;47.658;9.166;2024-03-23T04:01:06;1.13;;;1.10;;
6495;SDS011;3281;47.658;9.166;2024-03-23T04:03:33;1.17;;;1.10;;
6495;SDS011;3281;47.658;9.166;2024-03-23T04:06:00;1.00;;;1.00;;
6495;SDS011;3281;47.658;9.166;2024-03-23T04:08:27;2.20;;;1.67;;
6495;SDS011;3281;47.658;9.166;2024-03-23T04:10:53;1.53;;;1.43;;
6495;SDS011;3281;47.658;9.166;2024-03-23T04:13:19;1.50;;;1.37;;
6495;SDS011;3281;47.658;9.166;2024-03-23T04:15:46;4.33;;;1.80;;
6495;SDS011;3281;47.658;9.166;2024-03-23T04:18:11;1.20;;;1.10;;
6495;SDS011;3281;47.658;9.166;2024-03-23T04:20:39;1.63;;;1.53;;
6495;SDS011;3281;47.658;9.166;2024-03-23T04:23:06;2.83;;;1.77;;
6495;SDS011;3281;47.658;9.166;2024-03-23T04:25:33;1.37;;;1.10;;
6495;SDS011;3281;47.658;9.166;2024-03-23T04:27:58;3.70;;;1.40;;
6495;SDS011;3281;47.658;9.166;2024-03-23T04:30:25;1.13;;;0.97;;
6495;SDS011;3281;47.658;9.166;2024-03-23T04:32:53;2.27;;;1.23;;
6495;SDS011;3281;47.658;9.166;2024-03-23T04:35:20;1.23;;;1.13;;
6495;SDS011;3281;47.658;9.166;2024-03-23T04:37:47;1.17;;;0.90;;
6495;SDS011;3281;47.658;9.166;2024-03-23T04:40:15;0.70;;;0.70;;
6495;SDS011;3281;47.658;9.166;2024-03-23T04:42:42;1.20;;;1.10;;
6495;SDS011;3281;47.658;9.166;2024-03-23T04:45:08;2.23;;;1.20;;
6495;SDS011;3281;47.658;9.166;2024-03-23T04:47:35;3.60;;;1.87;;
6495;SDS011;3281;47.658;9.166;2024-03-23T04:50:02;1.70;;;0.93;;
6495;SDS011;3281;47.658;9.166;2024-03-23T04:52:30;2.17;;;1.33;;
6495;SDS011;3281;47.658;9.166;2024-03-23T04:54:56;0.60;;;0.60;;
6495;SDS011;3281;47.658;9.166;2024-03-23T04:57:25;0.83;;;0.80;;
6495;SDS011;3281;47.658;9.166;2024-03-23T04:59:50;2.00;;;0.87;;
6495;SDS011;3281;47.658;9.166;2024-03-23T05:02:17;1.13;;;0.97;;
6495;SDS011;3281;47.658;9.166;2024-03-23T05:04:43;0.80;;;0.80;;
6495;SDS011;3281;47.658;9.166;2024-03-23T05:07:10;0.77;;;0.70;;
6495;SDS011;3281;47.658;9.166;2024-03-23T05:09:36;3.33;;;0.67;;
6495;SDS011;3281;47.658;9.166;2024-03-23T05:12:03;0.60;;;0.60;;
6495;SDS011;3281;47.658;9.166;2024-03-23T05:14:30;0.60;;;0.60;;
6495;SDS011;3281;47.658;9.166;2024-03-23T05:16:57;1.00;;;0.63;;
6495;SDS011;3281;47.658;9.166;2024-03-23T05:19:23;3.20;;;2.60;;
6495;SDS011;3281;47.658;9.166;2024-03-23T05:21:50;3.17;;;2.37;;
6495;SDS011;3281;47.658;9.166;2024-03-23T05:24:15;1.17;;;1.17;;
6495;SDS011;3281;47.658;9.166;2024-03-23T05:26:42;0.60;;;0.60;;
6495;SDS011;3281;47.658;9.166;2024-03-23T05:29:08;0.77;;;0.77;;
6495;SDS011;3281;47.658;9.166;2024-03-23T05:31:37;2.70;;;1.13;;
6495;SDS011;3281;47.658;9.166;2024-03-23T05:34:03;1.37;;;1.17;;
6495;SDS011;3281;47.658;9.166;2024-03-23T05:36:29;2.43;;;1.50;;
6495;SDS011;3281;47.658;9.166;2024-03-23T05:38:55;2.23;;;0.80;;
6495;SDS011;3281;47.658;9.166;2024-03-23T05:41:22;1.20;;;1.10;;
6495;SDS011;3281;47.658;9.166;2024-03-23T05:43:49;1.03;;;0.93;;
6495;SDS011;3281;47.658;9.166;2024-03-23T05:46:15;0.77;;;0.77;;
6495;SDS011;3281;47.658;9.166;2024-03-23T05:48:44;0.80;;;0.80;;
6495;SDS011;3281;47.658;9.166;2024-03-23T05:51:11;2.67;;;0.80;;
6495;SDS011;3281;47.658;9.166;2024-03-23T05:53:37;0.70;;;0.70;;
6495;SDS011;3281;47.658;9.166;2024-03-23T05:56:04;0.77;;;0.77;;
6495;SDS011;3281;47.658;9.166;2024-03-23T05:58:31;3.00;;;0.63;;
6495;SDS011;3281;47.658;9.166;2024-03-23T06:00:58;1.23;;;0.90;;
6495;SDS011;3281;47.658;9.166;2024-03-23T06:03:24;1.17;;;1.07;;
6495;SDS011;3281;47.658;9.166;2024-03-23T06:05:52;1.27;;;1.17;;
6495;SDS011;3281;47.658;9.166;2024-03-23T06:08:18;1.70;;;0.80;;
6495;SDS011;3281;47.658;9.166;2024-03-23T06:10:44;0.57;;;0.57;;
6495;SDS011;3281;47.658;9.166;2024-03-23T06:13:10;0.60;;;0.60;;
6495;SDS011;3281;47.658;9.166;2024-03-23T06:15:37;0.50;;;0.50;;
6495;SDS011;3281;47.658;9.166;2024-03-23T06:18:03;0.93;;;0.70;;
6495;SDS011;3281;47.658;9.166;2024-03-23T06:20:32;0.67;;;0.67;;
6495;SDS011;3281;47.658;9.166;2024-03-23T06:22:59;1.13;;;0.60;;
6495;SDS011;3281;47.658;9.166;2024-03-23T06:25:25;0.87;;;0.80;;
6495;SDS011;3281;47.658;9.166;2024-03-23T06:27:51;1.03;;;0.80;;
6495;SDS011;3281;47.658;9.166;2024-03-23T06:30:18;1.00;;;0.87;;
6495;SDS011;3281;47.658;9.166;2024-03-23T06:32:43;0.70;;;0.70;;
6495;SDS011;3281;47.658;9.166;2024-03-23T06:35:10;0.70;;;0.70;;
6495;SDS011;3281;47.658;9.166;2024-03-23T06:37:36;0.93;;;0.87;;
6495;SDS011;3281;47.658;9.166;2024-03-23T06:40:06;1.17;;;1.07;;
6495;SDS011;3281;47.658;9.166;2024-03-23T06:42:34;1.00;;;0.90;;
6495;SDS011;3281;47.658;9.166;2024-03-23T06:45:01;1.07;;;0.90;;
6495;SDS011;3281;47.658;9.166;2024-03-23T06:47:27;1.27;;;0.93;;
6495;SDS011;3281;47.658;9.166;2024-03-23T06:49:53;1.00;;;1.00;;
6495;SDS011;3281;47.658;9.166;2024-03-23T06:52:19;1.10;;;0.90;;
6495;SDS011;3281;47.658;9.166;2024-03-23T06:54:46;1.13;;;0.90;;
6495;SDS011;3281;47.658;9.166;2024-03-23T06:57:13;0.70;;;0.70;;
6495;SDS011;3281;47.658;9.166;2024-03-23T06:59:39;0.93;;;0.93;;
6495;SDS011;3281;47.658;9.166;2024-03-23T07:02:05;1.77;;;1.37;;
6495;SDS011;3281;47.658;9.166;2024-03-23T07:04:33;1.30;;;1.20;;
6495;SDS011;3281;47.658;9.166;2024-03-23T07:06:59;0.67;;;0.67;;
6495;SDS011;3281;47.658;9.166;2024-03-23T07:09:26;0.80;;;0.80;;
6495;SDS011;3281;47.658;9.166;2024-03-23T07:11:53;0.83;;;0.83;;
6495;SDS011;3281;47.658;9.166;2024-03-23T07:14:22;1.07;;;1.07;;
6495;SDS011;3281;47.658;9.166;2024-03-23T07:16:49;0.70;;;0.70;;
6495;SDS011;3281;47.658;9.166;2024-03-23T07:19:15;2.87;;;0.87;;
6495;SDS011;3281;47.658;9.166;2024-03-23T07:21:42;0.97;;;0.90;;
6495;SDS011;3281;47.658;9.166;2024-03-23T07:24:08;1.37;;;1.27;;
6495;SDS011;3281;47.658;9.166;2024-03-23T07:26:35;1.30;;;1.10;;
6495;SDS011;3281;47.658;9.166;2024-03-23T07:29:00;1.43;;;1.33;;
6495;SDS011;3281;47.658;9.166;2024-03-23T07:31:29;0.80;;;0.80;;
6495;SDS011;3281;47.658;9.166;2024-03-23T07:33:56;1.40;;;1.30;;
6495;SDS011;3281;47.658;9.166;2024-03-23T07:36:22;1.30;;;1.00;;
6495;SDS011;3281;47.658;9.166;2024-03-23T07:38:48;2.50;;;1.27;;
6495;SDS011;3281;47.658;9.166;2024-03-23T07:41:15;1.10;;;1.00;;
6495;SDS011;3281;47.658;9.166;2024-03-23T07:43:42;1.10;;;1.00;;
6495;SDS011;3281;47.658;9.166;2024-03-23T07:46:09;3.00;;;1.40;;
6495;SDS011;3281;47.658;9.166;2024-03-23T07:48:38;1.47;;;1.33;;
6495;SDS011;3281;47.658;9.166;2024-03-23T07:51:08;1.77;;;1.43;;
6495;SDS011;3281;47.658;9.166;2024-03-23T07:53:35;1.30;;;1.20;;
6495;SDS011;3281;47.658;9.166;2024-03-23T07:56:03;1.77;;;1.30;;
6495;SDS011;3281;47.658;9.166;2024-03-23T07:58:31;1.70;;;1.30;;
6495;SDS011;3281;47.658;9.166;2024-03-23T08:01:03;1.20;;;1.10;;
6495;SDS011;3281;47.658;9.166;2024-03-23T08:03:30;1.20;;;1.10;;
6495;SDS011;3281;47.658;9.166;2024-03-23T08:05:58;1.13;;;0.97;;
6495;SDS011;3281;47.658;9.166;2024-03-23T08:08:33;1.53;;;1.43;;
6495;SDS011;3281;47.658;9.166;2024-03-23T08:10:59;1.37;;;1.10;;
6495;SDS011;3281;47.658;9.166;2024-03-23T08:13:26;0.80;;;0.80;;
6495;SDS011;3281;47.658;9.166;2024-03-23T08:15:52;0.93;;;0.90;;
6495;SDS011;3281;47.658;9.166;2024-03-23T08:18:22;1.03;;;1.03;;
6495;SDS011;3281;47.658;9.166;2024-03-23T08:20:54;1.40;;;1.27;;
6495;SDS011;3281;47.658;9.166;2024-03-23T08:23:23;1.80;;;1.37;;
6495;SDS011;3281;47.658;9.166;2024-03-23T08:25:49;0.93;;;0.93;;
6495;SDS011;3281;47.658;9.166;2024-03-23T08:28:16;0.60;;;0.60;;
6495;SDS011;3281;47.658;9.166;2024-03-23T08:30:42;0.30;;;0.30;;
6495;SDS011;3281;47.658;9.166;2024-03-23T08:33:08;0.30;;;0.30;;
6495;SDS011;3281;47.658;9.166;2024-03-23T08:35:34;0.40;;;0.40;;
6495;SDS011;3281;47.658;9.166;2024-03-23T08:38:01;0.50;;;0.40;;
6495;SDS011;3281;47.658;9.166;2024-03-23T08:40:28;0.30;;;0.30;;
6495;SDS011;3281;47.658;9.166;2024-03-23T08:42:54;0.30;;;0.30;;
6495;SDS011;3281;47.658;9.166;2024-03-23T08:45:20;0.40;;;0.40;;
6495;SDS011;3281;47.658;9.166;2024-03-23T08:47:47;0.30;;;0.30;;
6495;SDS011;3281;47.658;9.166;2024-03-23T08:50:13;0.40;;;0.40;;
6495;SDS011;3281;47.658;9.166;2024-03-23T08:52:39;0.40;;;0.40;;
6495;SDS011;3281;47.658;9.166;2024-03-23T08:55:05;0.20;;;0.20;;
6495;SDS011;3281;47.658;9.166;2024-03-23T08:57:34;0.40;;;0.40;;
6495;SDS011;3281;47.658;9.166;2024-03-23T09:00:00;0.33;;;0.33;;
6495;SDS011;3281;47.658;9.166;2024-03-23T09:02:26;0.30;;;0.30;;
6495;SDS011;3281;47.658;9.166;2024-03-23T09:04:52;0.30;;;0.30;;
6495;SDS011;3281;47.658;9.166;2024-03-23T09:07:19;0.30;;;0.30;;
6495;SDS011;3281;47.658;9.166;2024-03-23T09:09:44;0.30;;;0.30;;
6495;SDS011;3281;47.658;9.166;2024-03-23T09:12:11;0.47;;;0.47;;
6495;SDS011;3281;47.658;9.166;2024-03-23T09:14:38;0.43;;;0.40;;
6495;SDS011;3281;47.658;9.166;2024-03-23T09:17:05;0.30;;;0.30;;
6495;SDS011;3281;47.658;9.166;2024-03-23T09:19:31;0.50;;;0.50;;
6495;SDS011;3281;47.658;9.166;2024-03-23T09:21:57;1.60;;;0.70;;
6495;SDS011;3281;47.658;9.166;2024-03-23T09:24:23;0.30;;;0.30;;
6495;SDS011;3281;47.658;9.166;2024-03-23T09:26:51;0.37;;;0.37;;
6495;SDS011;3281;47.658;9.166;2024-03-23T09:29:17;0.40;;;0.40;;
6495;SDS011;3281;47.658;9.166;2024-03-23T09:31:45;0.40;;;0.40;;
6495;SDS011;3281;47.658;9.166;2024-03-23T09:34:11;0.40;;;0.40;;
6495;SDS011;3281;47.658;9.166;2024-03-23T09:36:38;0.30;;;0.30;;
6495;SDS011;3281;47.658;9.166;2024-03-23T09:39:03;0.30;;;0.30;;
6495;SDS011;3281;47.658;9.166;2024-03-23T09:41:30;0.60;;;0.60;;
6495;SDS011;3281;47.658;9.166;2024-03-23T09:43:56;0.40;;;0.40;;
6495;SDS011;3281;47.658;9.166;2024-03-23T09:46:23;0.30;;;0.30;;
6495;SDS011;3281;47.658;9.166;2024-03-23T09:48:50;0.40;;;0.40;;
6495;SDS011;3281;47.658;9.166;2024-03-23T09:51:17;0.30;;;0.30;;
6495;SDS011;3281;47.658;9.166;2024-03-23T09:53:42;0.40;;;0.40;;
6495;SDS011;3281;47.658;9.166;2024-03-23T09:56:09;0.30;;;0.30;;
6495;SDS011;3281;47.658;9.166;2024-03-23T09:58:36;0.30;;;0.30;;
6495;SDS011;3281;47.658;9.166;2024-03-23T10:01:03;0.30;;;0.30;;
6495;SDS011;3281;47.658;9.166;2024-03-23T10:03:29;0.30;;;0.30;;
6495;SDS011;3281;47.658;9.166;2024-03-23T10:06:03;0.30;;;0.30;;
6495;SDS011;3281;47.658;9.166;2024-03-23T10:08:30;0.30;;;0.30;;
6495;SDS011;3281;47.658;9.166;2024-03-23T10:10:58;0.40;;;0.40;;
6495;SDS011;3281;47.658;9.166;2024-03-23T10:13:41;0.30;;;0.30;;
6495;SDS011;3281;47.658;9.166;2024-03-23T10:16:08;0.30;;;0.30;;
6495;SDS011;3281;47.658;9.166;2024-03-23T10:18:36;0.40;;;0.40;;
6495;SDS011;3281;47.658;9.166;2024-03-23T10:21:08;0.30;;;0.30;;
6495;SDS011;3281;47.658;9.166;2024-03-23T10:23:36;0.33;;;0.33;;
6495;SDS011;3281;47.658;9.166;2024-03-23T10:26:13;0.30;;;0.30;;
6495;SDS011;3281;47.658;9.166;2024-03-23T10:28:54;0.40;;;0.40;;
6495;SDS011;3281;47.658;9.166;2024-03-23T10:31:24;0.67;;;0.53;;
6495;SDS011;3281;47.658;9.166;2024-03-23T10:33:50;0.60;;;0.60;;
6495;SDS011;3281;47.658;9.166;2024-03-23T10:36:20;0.30;;;0.30;;
6495;SDS011;3281;47.658;9.166;2024-03-23T10:38:47;0.50;;;0.50;;
6495;SDS011;3281;47.658;9.166;2024-03-23T10:41:15;0.30;;;0.30;;
6495;SDS011;3281;47.658;9.166;2024-03-23T10:43:41;0.30;;;0.30;;
6495;SDS011;3281;47.658;9.166;2024-03-23T10:46:10;0.67;;;0.60;;
6495;SDS011;3281;47.658;9.166;2024-03-23T10:48:36;1.27;;;0.77;;
6495;SDS011;3281;47.658;9.166;2024-03-23T10:51:03;0.60;;;0.60;;
6495;SDS011;3281;47.658;9.166;2024-03-23T10:53:32;0.37;;;0.37;;
6495;SDS011;3281;47.658;9.166;2024-03-23T10:56:00;0.40;;;0.40;;
6495;SDS011;3281;47.658;9.166;2024-03-23T10:58:28;0.50;;;0.50;;
6495;SDS011;3281;47.658;9.166;2024-03-23T11:00:57;2.70;;;0.93;;
6495;SDS011;3281;47.658;9.166;2024-03-23T11:03:29;0.50;;;0.50;;
6495;SDS011;3281;47.658;9.166;2024-03-23T11:05:57;0.70;;;0.70;;
6495;SDS011;3281;47.658;9.166;2024-03-23T11:08:34;0.40;;;0.40;;
6495;SDS011;3281;47.658;9.166;2024-03-23T11:11:14;0.40;;;0.40;;
6495;SDS011;3281;47.658;9.166;2024-03-23T11:13:42;0.40;;;0.40;;
6495;SDS011;3281;47.658;9.166;2024-03-23T11:16:15;0.60;;;0.60;;
6495;SDS011;3281;47.658;9.166;2024-03-23T11:18:42;1.37;;;0.63;;
6495;SDS011;3281;47.658;9.166;2024-03-23T11:21:10;0.87;;;0.67;;
6495;SDS011;3281;47.658;9.166;2024-03-23T11:23:37;0.40;;;0.40;;
6495;SDS011;3281;47.658;9.166;2024-03-23T11:26:07;0.40;;;0.40;;
6495;SDS011;3281;47.658;9.166;2024-03-23T11:28:33;1.43;;;0.50;;
6495;SDS011;3281;47.658;9.166;2024-03-23T11:30:59;0.40;;;0.22;;
6495;SDS011;3281;47.658;9.166;2024-03-23T11:33:25;1.03;;;0.63;;
6495;SDS011;3281;47.658;9.166;2024-03-23T11:35:53;3.77;;;0.63;;
6495;SDS011;3281;47.658;9.166;2024-03-23T11:38:19;0.77;;;0.70;;
6495;SDS011;3281;47.658;9.166;2024-03-23T11:40:47;0.40;;;0.40;;
6495;SDS011;3281;47.658;9.166;2024-03-23T11:43:14;0.40;;;0.40;;
6495;SDS011;3281;47.658;9.166;2024-03-23T11:45:42;0.70;;;0.70;;
6495;SDS011;3281;47.658;9.166;2024-03-23T11:48:09;0.47;;;0.47;;
6495;SDS011;3281;47.658;9.166;2024-03-23T11:50:37;2.83;;;0.65;;
6495;SDS011;3281;47.658;9.166;2024-03-23T11:53:12;0.90;;;0.63;;
6495;SDS011;3281;47.658;9.166;2024-03-23T11:55:41;1.00;;;0.60;;
6495;SDS011;3281;47.658;9.166;2024-03-23T11:58:09;1.17;;;0.63;;
6495;SDS011;3281;47.658;9.166;2024-03-23T12:00:36;0.50;;;0.50;;
6495;SDS011;3281;47.658;9.166;2024-03-23T12:03:02;1.40;;;0.50;;
6495;SDS011;3281;47.658;9.166;2024-03-23T12:05:29;3.22;;;0.57;;
6495;SDS011;3281;47.658;9.166;2024-03-23T12:07:55;0.50;;;0.50;;
6495;SDS011;3281;47.658;9.166;2024-03-23T12:10:43;0.82;;;0.70;;
6495;SDS011;3281;47.658;9.166;2024-03-23T12:13:11;1.48;;;0.80;;
6495;SDS011;3281;47.658;9.166;2024-03-23T12:15:40;0.73;;;0.50;;
6495;SDS011;3281;47.658;9.166;2024-03-23T12:18:06;0.30;;;0.30;;
6495;SDS011;3281;47.658;9.166;2024-03-23T12:20:33;0.43;;;0.43;;
6495;SDS011;3281;47.658;9.166;2024-03-23T12:23:04;0.57;;;0.50;;
6495;SDS011;3281;47.658;9.166;2024-03-23T12:25:32;0.40;;;0.40;;
6495;SDS011;3281;47.658;9.166;2024-03-23T12:27:59;1.07;;;0.63;;
6495;SDS011;3281;47.658;9.166;2024-03-23T12:30:27;1.50;;;0.67;;
6495;SDS011;3281;47.658;9.166;2024-03-23T12:32:53;0.50;;;0.50;;
6495;SDS011;3281;47.658;9.166;2024-03-23T12:35:19;1.03;;;0.73;;
6495;SDS011;3281;47.658;9.166;2024-03-23T12:37:45;0.40;;;0.40;;
6495;SDS011;3281;47.658;9.166;2024-03-23T12:40:12;0.53;;;0.53;;
6495;SDS011;3281;47.658;9.166;2024-03-23T12:42:38;1.10;;;0.60;;
6495;SDS011;3281;47.658;9.166;2024-03-23T12:45:05;0.45;;;0.40;;
6495;SDS011;3281;47.658;9.166;2024-03-23T12:47:32;1.00;;;0.70;;
6495;SDS011;3281;47.658;9.166;2024-03-23T12:49:59;0.50;;;0.50;;
6495;SDS011;3281;47.658;9.166;2024-03-23T12:52:25;0.57;;;0.57;;
6495;SDS011;3281;47.658;9.166;2024-03-23T12:54:53;1.53;;;0.60;;
6495;SDS011;3281;47.658;9.166;2024-03-23T12:57:21;0.50;;;0.50;;
6495;SDS011;3281;47.658;9.166;2024-03-23T12:59:48;0.30;;;0.30;;
6495;SDS011;3281;47.658;9.166;2024-03-23T13:02:16;0.40;;;0.40;;
6495;SDS011;3281;47.658;9.166;2024-03-23T13:04:45;0.43;;;0.43;;
6495;SDS011;3281;47.658;9.166;2024-03-23T13:07:11;0.23;;;0.23;;
6495;SDS011;3281;47.658;9.166;2024-03-23T13:09:38;0.47;;;0.47;;
6495;SDS011;3281;47.658;9.166;2024-03-23T13:12:05;0.30;;;0.30;;
6495;SDS011;3281;47.658;9.166;2024-03-23T13:14:32;0.63;;;0.40;;
6495;SDS011;3281;47.658;9.166;2024-03-23T13:16:58;2.10;;;0.45;;
6495;SDS011;3281;47.658;9.166;2024-03-23T13:19:26;5.88;;;0.68;;
6495;SDS011;3281;47.658;9.166;2024-03-23T13:21:54;0.30;;;0.30;;
6495;SDS011;3281;47.658;9.166;2024-03-23T13:24:21;0.30;;;0.30;;
6495;SDS011;3281;47.658;9.166;2024-03-23T13:26:49;0.47;;;0.43;;
6495;SDS011;3281;47.658;9.166;2024-03-23T13:29:16;0.90;;;0.43;;
6495;SDS011;3281;47.658;9.166;2024-03-23T13:31:42;0.30;;;0.30;;
6495;SDS011;3281;47.658;9.166;2024-03-23T13:34:09;0.40;;;0.40;;
6495;SDS011;3281;47.658;9.166;2024-03-23T13:36:35;1.03;;;0.57;;
6495;SDS011;3281;47.658;9.166;2024-03-23T13:39:03;1.20;;;0.83;;
6495;SDS011;3281;47.658;9.166;2024-03-23T13:41:34;4.00;;;0.33;;
6495;SDS011;3281;47.658;9.166;2024-03-23T13:44:00;1.47;;;0.40;;
6495;SDS011;3281;47.658;9.166;2024-03-23T13:46:26;0.30;;;0.30;;
6495;SDS011;3281;47.658;9.166;2024-03-23T13:48:53;0.30;;;0.30;;
6495;SDS011;3281;47.658;9.166;2024-03-23T13:51:23;0.30;;;0.30;;
6495;SDS011;3281;47.658;9.166;2024-03-23T13:53:52;0.40;;;0.40;;
6495;SDS011;3281;47.658;9.166;2024-03-23T13:56:19;1.10;;;0.57;;
6495;SDS011;3281;47.658;9.166;2024-03-23T13:58:46;5.97;;;0.60;;
6495;SDS011;3281;47.658;9.166;2024-03-23T14:01:12;3.03;;;0.50;;
6495;SDS011;3281;47.658;9.166;2024-03-23T14:03:39;0.30;;;0.30;;
6495;SDS011;3281;47.658;9.166;2024-03-23T14:06:06;0.40;;;0.40;;
6495;SDS011;3281;47.658;9.166;2024-03-23T14:08:33;0.50;;;0.50;;
6495;SDS011;3281;47.658;9.166;2024-03-23T14:11:00;0.40;;;0.40;;
6495;SDS011;3281;47.658;9.166;2024-03-23T14:13:30;0.50;;;0.50;;
6495;SDS011;3281;47.658;9.166;2024-03-23T14:15:56;1.07;;;0.87;;
6495;SDS011;3281;47.658;9.166;2024-03-23T14:18:23;2.20;;;0.67;;
6495;SDS011;3281;47.658;9.166;2024-03-23T14:20:51;2.23;;;0.87;;
6495;SDS011;3281;47.658;9.166;2024-03-23T14:23:18;1.57;;;0.87;;
6495;SDS011;3281;47.658;9.166;2024-03-23T14:25:43;0.97;;;0.77;;
6495;SDS011;3281;47.658;9.166;2024-03-23T14:28:10;1.20;;;0.77;;
6495;SDS011;3281;47.658;9.166;2024-03-23T14:30:40;4.83;;;0.80;;
6495;SDS011;3281;47.658;9.166;2024-03-23T14:33:08;1.60;;;0.70;;
6495;SDS011;3281;47.658;9.166;2024-03-23T14:35:33;1.00;;;0.60;;
6495;SDS011;3281;47.658;9.166;2024-03-23T14:38:00;2.17;;;0.75;;
6495;SDS011;3281;47.658;9.166;2024-03-23T14:40:26;0.20;;;0.20;;
6495;SDS011;3281;47.658;9.166;2024-03-23T14:42:53;0.30;;;0.30;;
6495;SDS011;3281;47.658;9.166;2024-03-23T14:45:18;1.20;;;0.43;;
6495;SDS011;3281;47.658;9.166;2024-03-23T14:47:47;3.92;;;0.57;;
6495;SDS011;3281;47.658;9.166;2024-03-23T14:50:13;0.30;;;0.30;;
6495;SDS011;3281;47.658;9.166;2024-03-23T14:52:40;0.40;;;0.40;;
6495;SDS011;3281;47.658;9.166;2024-03-23T14:55:07;0.88;;;0.47;;
6495;SDS011;3281;47.658;9.166;2024-03-23T14:57:34;0.52;;;0.47;;
6495;SDS011;3281;47.658;9.166;2024-03-23T15:00:00;0.40;;;0.40;;
6495;SDS011;3281;47.658;9.166;2024-03-23T15:02:29;0.30;;;0.30;;
6495;SDS011;3281;47.658;9.166;2024-03-23T15:04:58;0.22;;;0.22;;
6495;SDS011;3281;47.658;9.166;2024-03-23T15:07:25;2.10;;;1.00;;
6495;SDS011;3281;47.658;9.166;2024-03-23T15:09:50;2.93;;;0.40;;
6495;SDS011;3281;47.658;9.166;2024-03-23T15:12:18;0.60;;;0.50;;
6495;SDS011;3281;47.658;9.166;2024-03-23T15:14:44;0.40;;;0.40;;
6495;SDS011;3281;47.658;9.166;2024-03-23T15:17:12;1.53;;;0.80;;
6495;SDS011;3281;47.658;9.166;2024-03-23T15:19:38;1.47;;;0.77;;
6495;SDS011;3281;47.658;9.166;2024-03-23T15:22:06;1.00;;;0.90;;
6495;SDS011;3281;47.658;9.166;2024-03-23T15:24:32;0.63;;;0.63;;
6495;SDS011;3281;47.658;9.166;2024-03-23T15:27:00;4.03;;;0.70;;
6495;SDS011;3281;47.658;9.166;2024-03-23T15:29:25;0.63;;;0.60;;
6495;SDS011;3281;47.658;9.166;2024-03-23T15:31:52;0.30;;;0.30;;
6495;SDS011;3281;47.658;9.166;2024-03-23T15:34:18;3.97;;;0.70;;
6495;SDS011;3281;47.658;9.166;2024-03-23T15:36:46;0.43;;;0.43;;
6495;SDS011;3281;47.658;9.166;2024-03-23T15:39:14;0.50;;;0.40;;
6495;SDS011;3281;47.658;9.166;2024-03-23T15:41:41;4.03;;;1.30;;
6495;SDS011;3281;47.658;9.166;2024-03-23T15:44:08;0.53;;;0.53;;
6495;SDS011;3281;47.658;9.166;2024-03-23T15:46:35;0.50;;;0.50;;
6495;SDS011;3281;47.658;9.166;2024-03-23T15:49:01;1.40;;;0.63;;
6495;SDS011;3281;47.658;9.166;2024-03-23T15:51:27;0.63;;;0.50;;
6495;SDS011;3281;47.658;9.166;2024-03-23T15:53:57;0.40;;;0.40;;
6495;SDS011;3281;47.658;9.166;2024-03-23T15:56:26;0.63;;;0.63;;
6495;SDS011;3281;47.658;9.166;2024-03-23T15:58:52;1.27;;;0.30;;
6495;SDS011;3281;47.658;9.166;2024-03-23T16:01:18;0.50;;;0.50;;
6495;SDS011;3281;47.658;9.166;2024-03-23T16:03:44;0.40;;;0.40;;
6495;SDS011;3281;47.658;9.166;2024-03-23T16:06:11;0.67;;;0.67;;
6495;SDS011;3281;47.658;9.166;2024-03-23T16:08:36;1.13;;;0.70;;